sensor_id;sensor_type;location;lat;lon;timestamp;P1;durP1;ratioP1;P2;durP2;ratioP2
62123;SDS011;48110;47.532;19.078;2022-07-23T00:01:41;7.10;;;3.80;;
62123;SDS011;48110;47.532;19.078;2022-07-23T00:04:44;7.43;;;4.00;;
62123;SDS011;48110;47.532;19.078;2022-07-23T00:07:47;4.35;;;3.50;;
62123;SDS011;48110;47.532;19.078;2022-07-23T00:10:49;6.53;;;3.83;;
62123;SDS011;48110;47.532;19.078;2022-07-23T00:13:52;5.25;;;3.67;;
62123;SDS011;48110;47.532;19.078;2022-07-23T00:16:57;6.40;;;3.58;;
62123;SDS011;48110;47.532;19.078;2022-07-23T00:20:00;5.50;;;3.62;;
62123;SDS011;48110;47.532;19.078;2022-07-23T00:23:03;7.25;;;3.90;;
62123;SDS011;48110;47.532;19.078;2022-07-23T00:26:06;7.60;;;4.00;;
62123;SDS011;48110;47.532;19.078;2022-07-23T00:29:10;8.63;;;4.20;;
62123;SDS011;48110;47.532;19.078;2022-07-23T00:32:12;7.62;;;3.97;;
62123;SDS011;48110;47.532;19.078;2022-07-23T00:35:26;12.20;;;3.47;;
62123;SDS011;48110;47.532;19.078;2022-07-23T00:38:30;6.35;;;3.75;;
62123;SDS011;48110;47.532;19.078;2022-07-23T00:41:33;6.20;;;3.62;;
62123;SDS011;48110;47.532;19.078;2022-07-23T00:44:35;6.60;;;3.37;;
62123;SDS011;48110;47.532;19.078;2022-07-23T00:47:38;7.62;;;3.50;;
62123;SDS011;48110;47.532;19.078;2022-07-23T00:50:42;7.85;;;4.00;;
62123;SDS011;48110;47.532;19.078;2022-07-23T00:53:45;11.35;;;3.97;;
62123;SDS011;48110;47.532;19.078;2022-07-23T00:56:48;5.53;;;3.80;;
62123;SDS011;48110;47.532;19.078;2022-07-23T00:59:51;7.45;;;3.60;;
62123;SDS011;48110;47.532;19.078;2022-07-23T01:02:54;9.15;;;4.22;;
62123;SDS011;48110;47.532;19.078;2022-07-23T01:05:57;9.43;;;4.00;;
62123;SDS011;48110;47.532;19.078;2022-07-23T01:09:01;10.15;;;4.35;;
62123;SDS011;48110;47.532;19.078;2022-07-23T01:12:05;10.15;;;4.10;;
62123;SDS011;48110;47.532;19.078;2022-07-23T01:15:09;5.95;;;3.72;;
62123;SDS011;48110;47.532;19.078;2022-07-23T01:18:12;7.93;;;4.03;;
62123;SDS011;48110;47.532;19.078;2022-07-23T01:21:17;6.12;;;4.00;;
62123;SDS011;48110;47.532;19.078;2022-07-23T01:24:21;5.75;;;4.22;;
62123;SDS011;48110;47.532;19.078;2022-07-23T01:27:25;6.82;;;4.05;;
62123;SDS011;48110;47.532;19.078;2022-07-23T01:30:28;6.68;;;4.25;;
62123;SDS011;48110;47.532;19.078;2022-07-23T01:33:31;5.90;;;4.30;;
62123;SDS011;48110;47.532;19.078;2022-07-23T01:36:35;6.20;;;4.12;;
62123;SDS011;48110;47.532;19.078;2022-07-23T01:39:38;10.40;;;4.40;;
62123;SDS011;48110;47.532;19.078;2022-07-23T01:42:42;6.35;;;4.12;;
62123;SDS011;48110;47.532;19.078;2022-07-23T01:45:45;8.77;;;4.30;;
62123;SDS011;48110;47.532;19.078;2022-07-23T01:48:48;9.05;;;4.30;;
62123;SDS011;48110;47.532;19.078;2022-07-23T01:51:51;5.07;;;4.18;;
62123;SDS011;48110;47.532;19.078;2022-07-23T01:55:03;7.50;;;4.05;;
62123;SDS011;48110;47.532;19.078;2022-07-23T01:58:08;10.38;;;4.65;;
62123;SDS011;48110;47.532;19.078;2022-07-23T02:01:11;6.00;;;4.35;;
62123;SDS011;48110;47.532;19.078;2022-07-23T02:04:14;7.80;;;4.10;;
62123;SDS011;48110;47.532;19.078;2022-07-23T02:07:16;7.72;;;4.62;;
62123;SDS011;48110;47.532;19.078;2022-07-23T02:10:20;8.23;;;4.85;;
62123;SDS011;48110;47.532;19.078;2022-07-23T02:13:23;7.12;;;4.97;;
62123;SDS011;48110;47.532;19.078;2022-07-23T02:16:28;8.52;;;4.22;;
62123;SDS011;48110;47.532;19.078;2022-07-23T02:19:34;8.63;;;4.32;;
62123;SDS011;48110;47.532;19.078;2022-07-23T02:22:37;9.82;;;4.57;;
62123;SDS011;48110;47.532;19.078;2022-07-23T02:25:41;8.00;;;4.20;;
62123;SDS011;48110;47.532;19.078;2022-07-23T02:28:44;8.23;;;4.65;;
62123;SDS011;48110;47.532;19.078;2022-07-23T02:31:47;9.85;;;4.20;;
62123;SDS011;48110;47.532;19.078;2022-07-23T02:34:50;7.40;;;4.35;;
62123;SDS011;48110;47.532;19.078;2022-07-23T02:37:56;10.20;;;4.25;;
62123;SDS011;48110;47.532;19.078;2022-07-23T02:40:58;8.27;;;4.20;;
62123;SDS011;48110;47.532;19.078;2022-07-23T02:44:01;6.05;;;3.45;;
62123;SDS011;48110;47.532;19.078;2022-07-23T02:47:04;5.75;;;3.72;;
62123;SDS011;48110;47.532;19.078;2022-07-23T02:50:08;12.65;;;4.07;;
62123;SDS011;48110;47.532;19.078;2022-07-23T02:53:11;7.65;;;4.20;;
62123;SDS011;48110;47.532;19.078;2022-07-23T02:56:14;8.02;;;3.92;;
62123;SDS011;48110;47.532;19.078;2022-07-23T02:59:17;10.00;;;4.20;;
62123;SDS011;48110;47.532;19.078;2022-07-23T03:02:21;9.50;;;4.37;;
62123;SDS011;48110;47.532;19.078;2022-07-23T03:05:25;11.30;;;4.12;;
62123;SDS011;48110;47.532;19.078;2022-07-23T03:08:28;9.45;;;4.22;;
62123;SDS011;48110;47.532;19.078;2022-07-23T03:11:31;6.75;;;3.90;;
62123;SDS011;48110;47.532;19.078;2022-07-23T03:14:34;9.27;;;3.75;;
62123;SDS011;48110;47.532;19.078;2022-07-23T03:17:36;6.35;;;3.75;;
62123;SDS011;48110;47.532;19.078;2022-07-23T03:20:39;8.70;;;4.25;;
62123;SDS011;48110;47.532;19.078;2022-07-23T03:23:43;7.62;;;4.12;;
62123;SDS011;48110;47.532;19.078;2022-07-23T03:26:47;8.77;;;4.00;;
62123;SDS011;48110;47.532;19.078;2022-07-23T03:29:50;5.97;;;4.07;;
62123;SDS011;48110;47.532;19.078;2022-07-23T03:32:54;6.00;;;4.05;;
62123;SDS011;48110;47.532;19.078;2022-07-23T03:35:57;8.52;;;4.03;;
62123;SDS011;48110;47.532;19.078;2022-07-23T03:39:02;8.02;;;4.00;;
62123;SDS011;48110;47.532;19.078;2022-07-23T03:42:07;7.20;;;4.22;;
62123;SDS011;48110;47.532;19.078;2022-07-23T03:45:11;8.77;;;4.43;;
62123;SDS011;48110;47.532;19.078;2022-07-23T03:48:14;8.88;;;3.97;;
62123;SDS011;48110;47.532;19.078;2022-07-23T03:51:18;7.37;;;4.57;;
62123;SDS011;48110;47.532;19.078;2022-07-23T03:54:21;9.68;;;4.50;;
62123;SDS011;48110;47.532;19.078;2022-07-23T03:57:24;9.57;;;4.30;;
62123;SDS011;48110;47.532;19.078;2022-07-23T04:00:27;8.73;;;4.07;;
62123;SDS011;48110;47.532;19.078;2022-07-23T04:03:30;13.23;;;4.15;;
62123;SDS011;48110;47.532;19.078;2022-07-23T04:06:33;7.60;;;4.20;;
62123;SDS011;48110;47.532;19.078;2022-07-23T04:09:37;6.70;;;4.28;;
62123;SDS011;48110;47.532;19.078;2022-07-23T04:12:39;8.15;;;4.50;;
62123;SDS011;48110;47.532;19.078;2022-07-23T04:15:42;5.72;;;3.80;;
62123;SDS011;48110;47.532;19.078;2022-07-23T04:18:45;7.50;;;4.30;;
62123;SDS011;48110;47.532;19.078;2022-07-23T04:21:48;7.70;;;4.05;;
62123;SDS011;48110;47.532;19.078;2022-07-23T04:24:51;8.45;;;3.97;;
62123;SDS011;48110;47.532;19.078;2022-07-23T04:27:53;7.07;;;4.10;;
62123;SDS011;48110;47.532;19.078;2022-07-23T04:30:58;5.90;;;4.10;;
62123;SDS011;48110;47.532;19.078;2022-07-23T04:34:01;11.32;;;4.35;;
62123;SDS011;48110;47.532;19.078;2022-07-23T04:37:05;8.25;;;4.60;;
62123;SDS011;48110;47.532;19.078;2022-07-23T04:40:08;9.38;;;4.50;;
62123;SDS011;48110;47.532;19.078;2022-07-23T04:43:11;6.25;;;4.00;;
62123;SDS011;48110;47.532;19.078;2022-07-23T04:46:15;7.95;;;4.22;;
62123;SDS011;48110;47.532;19.078;2022-07-23T04:49:19;9.38;;;4.90;;
62123;SDS011;48110;47.532;19.078;2022-07-23T04:52:22;7.87;;;4.32;;
62123;SDS011;48110;47.532;19.078;2022-07-23T04:55:24;10.18;;;4.43;;
62123;SDS011;48110;47.532;19.078;2022-07-23T04:58:28;6.68;;;3.90;;
62123;SDS011;48110;47.532;19.078;2022-07-23T05:01:30;7.50;;;4.30;;
62123;SDS011;48110;47.532;19.078;2022-07-23T05:04:33;8.75;;;4.18;;
62123;SDS011;48110;47.532;19.078;2022-07-23T05:07:36;5.72;;;3.90;;
62123;SDS011;48110;47.532;19.078;2022-07-23T05:10:39;6.72;;;3.87;;
62123;SDS011;48110;47.532;19.078;2022-07-23T05:13:42;7.57;;;4.00;;
62123;SDS011;48110;47.532;19.078;2022-07-23T05:16:45;6.15;;;3.97;;
62123;SDS011;48110;47.532;19.078;2022-07-23T05:19:48;5.03;;;4.00;;
62123;SDS011;48110;47.532;19.078;2022-07-23T05:22:51;7.85;;;3.65;;
62123;SDS011;48110;47.532;19.078;2022-07-23T05:25:53;6.15;;;3.78;;
62123;SDS011;48110;47.532;19.078;2022-07-23T05:28:56;6.22;;;3.60;;
62123;SDS011;48110;47.532;19.078;2022-07-23T05:31:59;5.93;;;4.20;;
62123;SDS011;48110;47.532;19.078;2022-07-23T05:35:03;6.18;;;4.00;;
62123;SDS011;48110;47.532;19.078;2022-07-23T05:38:08;8.38;;;3.58;;
62123;SDS011;48110;47.532;19.078;2022-07-23T05:41:11;5.40;;;3.58;;
62123;SDS011;48110;47.532;19.078;2022-07-23T05:44:14;7.47;;;3.65;;
62123;SDS011;48110;47.532;19.078;2022-07-23T05:47:17;7.10;;;3.62;;
62123;SDS011;48110;47.532;19.078;2022-07-23T05:50:20;9.05;;;3.65;;
62123;SDS011;48110;47.532;19.078;2022-07-23T05:53:24;10.05;;;3.67;;
62123;SDS011;48110;47.532;19.078;2022-07-23T05:56:27;8.32;;;3.67;;
62123;SDS011;48110;47.532;19.078;2022-07-23T05:59:30;11.27;;;3.92;;
62123;SDS011;48110;47.532;19.078;2022-07-23T06:02:33;5.75;;;3.47;;
62123;SDS011;48110;47.532;19.078;2022-07-23T06:05:36;10.80;;;3.42;;
62123;SDS011;48110;47.532;19.078;2022-07-23T06:08:40;7.37;;;3.50;;
62123;SDS011;48110;47.532;19.078;2022-07-23T06:11:43;7.70;;;3.70;;
62123;SDS011;48110;47.532;19.078;2022-07-23T06:14:46;9.05;;;3.15;;
62123;SDS011;48110;47.532;19.078;2022-07-23T06:17:52;5.00;;;3.03;;
62123;SDS011;48110;47.532;19.078;2022-07-23T06:20:54;7.78;;;3.10;;
62123;SDS011;48110;47.532;19.078;2022-07-23T06:24:02;5.12;;;3.22;;
62123;SDS011;48110;47.532;19.078;2022-07-23T06:27:05;9.77;;;3.53;;
62123;SDS011;48110;47.532;19.078;2022-07-23T06:30:08;7.47;;;3.60;;
62123;SDS011;48110;47.532;19.078;2022-07-23T06:33:12;6.32;;;3.20;;
62123;SDS011;48110;47.532;19.078;2022-07-23T06:36:18;8.18;;;3.40;;
62123;SDS011;48110;47.532;19.078;2022-07-23T06:39:21;4.78;;;3.10;;
62123;SDS011;48110;47.532;19.078;2022-07-23T06:42:25;4.53;;;3.33;;
62123;SDS011;48110;47.532;19.078;2022-07-23T06:45:27;4.40;;;3.20;;
62123;SDS011;48110;47.532;19.078;2022-07-23T06:48:30;4.90;;;3.00;;
62123;SDS011;48110;47.532;19.078;2022-07-23T06:51:34;5.62;;;3.15;;
62123;SDS011;48110;47.532;19.078;2022-07-23T06:54:37;5.45;;;3.12;;
62123;SDS011;48110;47.532;19.078;2022-07-23T06:57:39;5.22;;;3.03;;
62123;SDS011;48110;47.532;19.078;2022-07-23T07:00:43;6.87;;;2.83;;
62123;SDS011;48110;47.532;19.078;2022-07-23T07:03:46;7.90;;;3.42;;
62123;SDS011;48110;47.532;19.078;2022-07-23T07:06:51;8.55;;;3.62;;
62123;SDS011;48110;47.532;19.078;2022-07-23T07:09:54;8.25;;;2.95;;
62123;SDS011;48110;47.532;19.078;2022-07-23T07:12:57;5.82;;;2.97;;
62123;SDS011;48110;47.532;19.078;2022-07-23T07:16:00;4.72;;;3.05;;
62123;SDS011;48110;47.532;19.078;2022-07-23T07:19:03;8.52;;;2.80;;
62123;SDS011;48110;47.532;19.078;2022-07-23T07:22:09;10.77;;;3.08;;
62123;SDS011;48110;47.532;19.078;2022-07-23T07:28:28;5.37;;;2.90;;
62123;SDS011;48110;47.532;19.078;2022-07-23T07:31:32;5.97;;;3.22;;
62123;SDS011;48110;47.532;19.078;2022-07-23T07:34:35;7.30;;;3.28;;
62123;SDS011;48110;47.532;19.078;2022-07-23T07:37:37;6.62;;;2.80;;
62123;SDS011;48110;47.532;19.078;2022-07-23T07:40:40;5.15;;;3.10;;
62123;SDS011;48110;47.532;19.078;2022-07-23T07:43:43;8.38;;;3.17;;
62123;SDS011;48110;47.532;19.078;2022-07-23T07:46:45;6.85;;;3.15;;
62123;SDS011;48110;47.532;19.078;2022-07-23T07:49:49;6.80;;;2.55;;
62123;SDS011;48110;47.532;19.078;2022-07-23T07:53:00;5.22;;;2.80;;
62123;SDS011;48110;47.532;19.078;2022-07-23T07:56:21;9.80;;;3.10;;
62123;SDS011;48110;47.532;19.078;2022-07-23T07:59:23;8.35;;;2.85;;
62123;SDS011;48110;47.532;19.078;2022-07-23T08:02:26;7.40;;;2.80;;
62123;SDS011;48110;47.532;19.078;2022-07-23T08:05:30;8.05;;;2.97;;
62123;SDS011;48110;47.532;19.078;2022-07-23T08:08:33;6.97;;;2.72;;
62123;SDS011;48110;47.532;19.078;2022-07-23T08:11:36;6.70;;;3.20;;
62123;SDS011;48110;47.532;19.078;2022-07-23T08:14:39;6.80;;;2.42;;
62123;SDS011;48110;47.532;19.078;2022-07-23T08:17:42;7.10;;;2.67;;
62123;SDS011;48110;47.532;19.078;2022-07-23T08:20:46;9.45;;;2.70;;
62123;SDS011;48110;47.532;19.078;2022-07-23T08:23:49;4.50;;;2.22;;
62123;SDS011;48110;47.532;19.078;2022-07-23T08:26:51;5.82;;;2.60;;
62123;SDS011;48110;47.532;19.078;2022-07-23T08:29:54;5.50;;;2.72;;
62123;SDS011;48110;47.532;19.078;2022-07-23T08:36:03;7.97;;;2.45;;
62123;SDS011;48110;47.532;19.078;2022-07-23T08:39:06;6.22;;;2.25;;
62123;SDS011;48110;47.532;19.078;2022-07-23T08:42:09;3.80;;;2.50;;
62123;SDS011;48110;47.532;19.078;2022-07-23T08:45:12;4.95;;;2.60;;
62123;SDS011;48110;47.532;19.078;2022-07-23T08:48:16;5.95;;;2.33;;
62123;SDS011;48110;47.532;19.078;2022-07-23T08:51:21;6.55;;;2.20;;
62123;SDS011;48110;47.532;19.078;2022-07-23T08:54:30;7.57;;;2.67;;
62123;SDS011;48110;47.532;19.078;2022-07-23T08:57:34;5.20;;;2.00;;
62123;SDS011;48110;47.532;19.078;2022-07-23T09:00:37;4.05;;;2.22;;
62123;SDS011;48110;47.532;19.078;2022-07-23T09:03:40;3.97;;;2.20;;
62123;SDS011;48110;47.532;19.078;2022-07-23T09:06:43;9.65;;;2.60;;
62123;SDS011;48110;47.532;19.078;2022-07-23T09:09:45;3.72;;;2.25;;
62123;SDS011;48110;47.532;19.078;2022-07-23T09:12:48;6.40;;;2.40;;
62123;SDS011;48110;47.532;19.078;2022-07-23T09:15:51;10.40;;;2.28;;
62123;SDS011;48110;47.532;19.078;2022-07-23T09:18:56;3.12;;;2.00;;
62123;SDS011;48110;47.532;19.078;2022-07-23T09:25:30;5.95;;;2.25;;
62123;SDS011;48110;47.532;19.078;2022-07-23T09:28:32;10.63;;;2.20;;
62123;SDS011;48110;47.532;19.078;2022-07-23T09:31:53;7.65;;;2.62;;
62123;SDS011;48110;47.532;19.078;2022-07-23T09:34:56;5.68;;;2.10;;
62123;SDS011;48110;47.532;19.078;2022-07-23T09:38:02;3.40;;;2.17;;
62123;SDS011;48110;47.532;19.078;2022-07-23T09:41:10;4.03;;;2.37;;
62123;SDS011;48110;47.532;19.078;2022-07-23T09:44:16;4.47;;;2.55;;
62123;SDS011;48110;47.532;19.078;2022-07-23T09:47:24;3.45;;;2.10;;
62123;SDS011;48110;47.532;19.078;2022-07-23T09:50:37;4.25;;;2.08;;
62123;SDS011;48110;47.532;19.078;2022-07-23T09:53:39;7.30;;;2.30;;
62123;SDS011;48110;47.532;19.078;2022-07-23T09:56:42;3.20;;;2.17;;
62123;SDS011;48110;47.532;19.078;2022-07-23T09:59:45;5.15;;;2.45;;
62123;SDS011;48110;47.532;19.078;2022-07-23T10:02:50;5.50;;;2.42;;
62123;SDS011;48110;47.532;19.078;2022-07-23T10:05:59;3.30;;;1.98;;
62123;SDS011;48110;47.532;19.078;2022-07-23T10:09:04;7.75;;;2.80;;
62123;SDS011;48110;47.532;19.078;2022-07-23T10:12:13;6.90;;;2.50;;
62123;SDS011;48110;47.532;19.078;2022-07-23T10:15:35;2.95;;;2.20;;
62123;SDS011;48110;47.532;19.078;2022-07-23T10:18:39;6.10;;;2.28;;
62123;SDS011;48110;47.532;19.078;2022-07-23T10:21:48;4.22;;;2.20;;
62123;SDS011;48110;47.532;19.078;2022-07-23T10:25:06;3.92;;;2.28;;
62123;SDS011;48110;47.532;19.078;2022-07-23T10:28:22;5.05;;;2.65;;
62123;SDS011;48110;47.532;19.078;2022-07-23T10:38:22;6.22;;;2.78;;
62123;SDS011;48110;47.532;19.078;2022-07-23T10:41:36;5.50;;;2.90;;
62123;SDS011;48110;47.532;19.078;2022-07-23T10:44:44;6.05;;;2.75;;
62123;SDS011;48110;47.532;19.078;2022-07-23T10:47:49;5.18;;;2.45;;
62123;SDS011;48110;47.532;19.078;2022-07-23T10:54:26;8.07;;;2.72;;
62123;SDS011;48110;47.532;19.078;2022-07-23T10:57:29;5.47;;;2.62;;
62123;SDS011;48110;47.532;19.078;2022-07-23T11:00:33;3.03;;;2.47;;
62123;SDS011;48110;47.532;19.078;2022-07-23T11:03:37;7.45;;;2.90;;
62123;SDS011;48110;47.532;19.078;2022-07-23T11:09:53;4.62;;;2.28;;
62123;SDS011;48110;47.532;19.078;2022-07-23T11:12:56;5.40;;;2.50;;
62123;SDS011;48110;47.532;19.078;2022-07-23T11:16:25;4.05;;;2.35;;
62123;SDS011;48110;47.532;19.078;2022-07-23T11:19:28;4.93;;;2.80;;
62123;SDS011;48110;47.532;19.078;2022-07-23T11:25:45;3.75;;;2.65;;
62123;SDS011;48110;47.532;19.078;2022-07-23T11:28:49;5.20;;;2.72;;
62123;SDS011;48110;47.532;19.078;2022-07-23T11:32:01;3.80;;;2.83;;
62123;SDS011;48110;47.532;19.078;2022-07-23T11:38:27;6.03;;;2.90;;
62123;SDS011;48110;47.532;19.078;2022-07-23T11:41:43;7.07;;;2.93;;
62123;SDS011;48110;47.532;19.078;2022-07-23T11:44:46;5.65;;;2.53;;
62123;SDS011;48110;47.532;19.078;2022-07-23T11:47:51;5.87;;;2.95;;
62123;SDS011;48110;47.532;19.078;2022-07-23T11:50:53;7.30;;;2.80;;
62123;SDS011;48110;47.532;19.078;2022-07-23T11:54:05;2.65;;;2.42;;
62123;SDS011;48110;47.532;19.078;2022-07-23T11:57:09;4.15;;;2.62;;
62123;SDS011;48110;47.532;19.078;2022-07-23T12:00:15;6.93;;;2.67;;
62123;SDS011;48110;47.532;19.078;2022-07-23T12:03:23;3.35;;;2.90;;
62123;SDS011;48110;47.532;19.078;2022-07-23T12:06:26;4.30;;;2.60;;
62123;SDS011;48110;47.532;19.078;2022-07-23T12:09:29;5.43;;;2.65;;
62123;SDS011;48110;47.532;19.078;2022-07-23T12:12:35;2.90;;;2.40;;
62123;SDS011;48110;47.532;19.078;2022-07-23T12:15:41;11.32;;;2.70;;
62123;SDS011;48110;47.532;19.078;2022-07-23T12:18:46;4.03;;;2.70;;
62123;SDS011;48110;47.532;19.078;2022-07-23T12:21:49;5.35;;;2.75;;
62123;SDS011;48110;47.532;19.078;2022-07-23T12:25:03;5.40;;;2.80;;
62123;SDS011;48110;47.532;19.078;2022-07-23T12:28:22;4.23;;;2.70;;
62123;SDS011;48110;47.532;19.078;2022-07-23T12:31:30;7.10;;;2.78;;
62123;SDS011;48110;47.532;19.078;2022-07-23T12:34:33;4.10;;;2.80;;
62123;SDS011;48110;47.532;19.078;2022-07-23T12:37:37;4.35;;;2.60;;
62123;SDS011;48110;47.532;19.078;2022-07-23T12:43:53;4.37;;;2.60;;
62123;SDS011;48110;47.532;19.078;2022-07-23T12:46:56;4.43;;;2.97;;
62123;SDS011;48110;47.532;19.078;2022-07-23T12:49:59;6.03;;;2.97;;
62123;SDS011;48110;47.532;19.078;2022-07-23T12:53:12;7.25;;;2.83;;
62123;SDS011;48110;47.532;19.078;2022-07-23T12:56:29;6.80;;;3.00;;
62123;SDS011;48110;47.532;19.078;2022-07-23T12:59:36;5.12;;;2.87;;
62123;SDS011;48110;47.532;19.078;2022-07-23T13:02:45;6.70;;;2.90;;
62123;SDS011;48110;47.532;19.078;2022-07-23T13:05:49;3.92;;;2.80;;
62123;SDS011;48110;47.532;19.078;2022-07-23T13:08:54;5.78;;;3.10;;
62123;SDS011;48110;47.532;19.078;2022-07-23T13:11:58;4.53;;;2.50;;
62123;SDS011;48110;47.532;19.078;2022-07-23T13:15:01;6.87;;;2.53;;
62123;SDS011;48110;47.532;19.078;2022-07-23T13:18:04;6.50;;;2.70;;
62123;SDS011;48110;47.532;19.078;2022-07-23T13:21:08;5.10;;;2.80;;
62123;SDS011;48110;47.532;19.078;2022-07-23T13:24:11;9.30;;;3.30;;
62123;SDS011;48110;47.532;19.078;2022-07-23T13:27:14;4.18;;;2.65;;
62123;SDS011;48110;47.532;19.078;2022-07-23T13:30:18;6.15;;;3.08;;
62123;SDS011;48110;47.532;19.078;2022-07-23T13:33:26;4.35;;;2.30;;
62123;SDS011;48110;47.532;19.078;2022-07-23T13:36:29;4.45;;;2.75;;
62123;SDS011;48110;47.532;19.078;2022-07-23T13:39:31;4.95;;;2.50;;
62123;SDS011;48110;47.532;19.078;2022-07-23T13:42:39;4.00;;;2.58;;
62123;SDS011;48110;47.532;19.078;2022-07-23T13:45:42;6.15;;;2.60;;
62123;SDS011;48110;47.532;19.078;2022-07-23T13:48:46;3.95;;;2.40;;
62123;SDS011;48110;47.532;19.078;2022-07-23T13:51:49;3.92;;;2.53;;
62123;SDS011;48110;47.532;19.078;2022-07-23T13:54:52;7.37;;;2.67;;
62123;SDS011;48110;47.532;19.078;2022-07-23T13:57:55;6.65;;;2.53;;
62123;SDS011;48110;47.532;19.078;2022-07-23T14:00:58;3.37;;;2.62;;
62123;SDS011;48110;47.532;19.078;2022-07-23T14:04:04;7.07;;;2.50;;
62123;SDS011;48110;47.532;19.078;2022-07-23T14:07:07;2.97;;;2.53;;
62123;SDS011;48110;47.532;19.078;2022-07-23T14:10:10;4.53;;;2.45;;
62123;SDS011;48110;47.532;19.078;2022-07-23T14:13:16;4.53;;;2.70;;
62123;SDS011;48110;47.532;19.078;2022-07-23T14:19:26;3.80;;;2.83;;
62123;SDS011;48110;47.532;19.078;2022-07-23T14:22:32;4.25;;;2.72;;
62123;SDS011;48110;47.532;19.078;2022-07-23T14:25:35;6.60;;;2.92;;
62123;SDS011;48110;47.532;19.078;2022-07-23T14:28:40;5.55;;;2.95;;
62123;SDS011;48110;47.532;19.078;2022-07-23T14:31:43;4.90;;;3.35;;
62123;SDS011;48110;47.532;19.078;2022-07-23T14:34:49;5.93;;;3.20;;
62123;SDS011;48110;47.532;19.078;2022-07-23T14:37:51;7.15;;;3.30;;
62123;SDS011;48110;47.532;19.078;2022-07-23T14:40:58;4.68;;;3.08;;
62123;SDS011;48110;47.532;19.078;2022-07-23T14:44:02;4.75;;;3.10;;
62123;SDS011;48110;47.532;19.078;2022-07-23T14:47:07;7.45;;;3.05;;
62123;SDS011;48110;47.532;19.078;2022-07-23T14:50:15;5.85;;;3.35;;
62123;SDS011;48110;47.532;19.078;2022-07-23T14:53:26;7.87;;;4.22;;
62123;SDS011;48110;47.532;19.078;2022-07-23T14:56:29;6.95;;;3.20;;
62123;SDS011;48110;47.532;19.078;2022-07-23T14:59:32;6.00;;;3.03;;
62123;SDS011;48110;47.532;19.078;2022-07-23T15:02:35;4.25;;;2.95;;
62123;SDS011;48110;47.532;19.078;2022-07-23T15:05:44;3.70;;;2.95;;
62123;SDS011;48110;47.532;19.078;2022-07-23T15:08:47;5.15;;;3.00;;
62123;SDS011;48110;47.532;19.078;2022-07-23T15:11:51;5.82;;;3.03;;
62123;SDS011;48110;47.532;19.078;2022-07-23T15:14:54;6.25;;;3.53;;
62123;SDS011;48110;47.532;19.078;2022-07-23T15:17:56;5.62;;;3.20;;
62123;SDS011;48110;47.532;19.078;2022-07-23T15:20:59;4.28;;;3.20;;
62123;SDS011;48110;47.532;19.078;2022-07-23T15:24:06;4.00;;;3.00;;
62123;SDS011;48110;47.532;19.078;2022-07-23T15:27:09;5.25;;;3.30;;
62123;SDS011;48110;47.532;19.078;2022-07-23T15:30:27;5.70;;;3.35;;
62123;SDS011;48110;47.532;19.078;2022-07-23T15:33:30;7.47;;;3.00;;
62123;SDS011;48110;47.532;19.078;2022-07-23T15:36:33;7.93;;;3.67;;
62123;SDS011;48110;47.532;19.078;2022-07-23T15:39:37;6.80;;;3.55;;
62123;SDS011;48110;47.532;19.078;2022-07-23T15:42:40;6.35;;;4.20;;
62123;SDS011;48110;47.532;19.078;2022-07-23T15:45:43;29.00;;;5.00;;
62123;SDS011;48110;47.532;19.078;2022-07-23T15:48:46;26.08;;;5.43;;
62123;SDS011;48110;47.532;19.078;2022-07-23T15:51:50;19.50;;;5.32;;
62123;SDS011;48110;47.532;19.078;2022-07-23T15:54:52;16.65;;;5.05;;
62123;SDS011;48110;47.532;19.078;2022-07-23T15:57:55;14.05;;;5.47;;
62123;SDS011;48110;47.532;19.078;2022-07-23T16:00:58;10.25;;;5.00;;
62123;SDS011;48110;47.532;19.078;2022-07-23T16:04:06;11.35;;;5.45;;
62123;SDS011;48110;47.532;19.078;2022-07-23T16:07:09;8.80;;;4.80;;
62123;SDS011;48110;47.532;19.078;2022-07-23T16:10:17;10.02;;;5.10;;
62123;SDS011;48110;47.532;19.078;2022-07-23T16:13:20;11.57;;;5.50;;
62123;SDS011;48110;47.532;19.078;2022-07-23T16:16:25;9.30;;;5.15;;
62123;SDS011;48110;47.532;19.078;2022-07-23T16:19:29;6.00;;;4.85;;
62123;SDS011;48110;47.532;19.078;2022-07-23T16:22:33;8.95;;;4.87;;
62123;SDS011;48110;47.532;19.078;2022-07-23T16:25:36;8.65;;;4.87;;
62123;SDS011;48110;47.532;19.078;2022-07-23T16:28:40;12.23;;;5.47;;
62123;SDS011;48110;47.532;19.078;2022-07-23T16:31:44;12.05;;;5.50;;
62123;SDS011;48110;47.532;19.078;2022-07-23T16:34:47;16.20;;;5.93;;
62123;SDS011;48110;47.532;19.078;2022-07-23T16:37:49;11.10;;;5.95;;
62123;SDS011;48110;47.532;19.078;2022-07-23T16:40:53;12.63;;;5.90;;
62123;SDS011;48110;47.532;19.078;2022-07-23T16:43:57;70.35;;;7.45;;
62123;SDS011;48110;47.532;19.078;2022-07-23T16:47:00;13.10;;;6.18;;
62123;SDS011;48110;47.532;19.078;2022-07-23T16:50:04;16.65;;;5.75;;
62123;SDS011;48110;47.532;19.078;2022-07-23T16:53:12;8.32;;;4.87;;
62123;SDS011;48110;47.532;19.078;2022-07-23T16:56:15;9.38;;;5.37;;
62123;SDS011;48110;47.532;19.078;2022-07-23T16:59:18;11.80;;;5.90;;
62123;SDS011;48110;47.532;19.078;2022-07-23T17:02:21;11.48;;;6.12;;
62123;SDS011;48110;47.532;19.078;2022-07-23T17:05:24;9.23;;;6.85;;
62123;SDS011;48110;47.532;19.078;2022-07-23T17:08:27;14.57;;;7.03;;
62123;SDS011;48110;47.532;19.078;2022-07-23T17:11:30;9.52;;;6.37;;
62123;SDS011;48110;47.532;19.078;2022-07-23T17:14:34;7.40;;;6.43;;
62123;SDS011;48110;47.532;19.078;2022-07-23T17:17:38;8.68;;;6.25;;
62123;SDS011;48110;47.532;19.078;2022-07-23T17:20:41;8.35;;;6.05;;
62123;SDS011;48110;47.532;19.078;2022-07-23T17:23:45;8.60;;;6.55;;
62123;SDS011;48110;47.532;19.078;2022-07-23T17:26:48;8.25;;;5.90;;
62123;SDS011;48110;47.532;19.078;2022-07-23T17:29:52;6.75;;;5.43;;
62123;SDS011;48110;47.532;19.078;2022-07-23T17:32:54;7.90;;;5.15;;
62123;SDS011;48110;47.532;19.078;2022-07-23T17:35:57;6.40;;;5.65;;
62123;SDS011;48110;47.532;19.078;2022-07-23T17:39:00;7.95;;;5.85;;
62123;SDS011;48110;47.532;19.078;2022-07-23T17:42:08;6.28;;;5.30;;
62123;SDS011;48110;47.532;19.078;2022-07-23T17:45:10;6.68;;;5.35;;
62123;SDS011;48110;47.532;19.078;2022-07-23T17:48:18;6.03;;;5.20;;
62123;SDS011;48110;47.532;19.078;2022-07-23T17:51:21;7.05;;;5.15;;
62123;SDS011;48110;47.532;19.078;2022-07-23T17:54:24;6.93;;;5.55;;
62123;SDS011;48110;47.532;19.078;2022-07-23T17:57:31;7.40;;;5.10;;
62123;SDS011;48110;47.532;19.078;2022-07-23T18:00:35;8.43;;;5.40;;
62123;SDS011;48110;47.532;19.078;2022-07-23T18:03:39;7.43;;;5.25;;
62123;SDS011;48110;47.532;19.078;2022-07-23T18:06:42;5.78;;;4.87;;
62123;SDS011;48110;47.532;19.078;2022-07-23T18:09:45;7.30;;;5.40;;
62123;SDS011;48110;47.532;19.078;2022-07-23T18:12:50;6.30;;;5.50;;
62123;SDS011;48110;47.532;19.078;2022-07-23T18:15:53;6.60;;;5.30;;
62123;SDS011;48110;47.532;19.078;2022-07-23T18:18:56;8.82;;;6.32;;
62123;SDS011;48110;47.532;19.078;2022-07-23T18:21:59;6.57;;;5.55;;
62123;SDS011;48110;47.532;19.078;2022-07-23T18:25:03;6.87;;;5.40;;
62123;SDS011;48110;47.532;19.078;2022-07-23T18:28:08;7.87;;;5.60;;
62123;SDS011;48110;47.532;19.078;2022-07-23T18:31:11;7.70;;;5.70;;
62123;SDS011;48110;47.532;19.078;2022-07-23T18:34:17;8.10;;;5.78;;
62123;SDS011;48110;47.532;19.078;2022-07-23T18:37:26;6.75;;;5.45;;
62123;SDS011;48110;47.532;19.078;2022-07-23T18:40:39;7.75;;;5.18;;
62123;SDS011;48110;47.532;19.078;2022-07-23T18:43:41;8.05;;;5.53;;
62123;SDS011;48110;47.532;19.078;2022-07-23T18:46:45;6.93;;;5.60;;
62123;SDS011;48110;47.532;19.078;2022-07-23T18:49:50;7.15;;;5.65;;